sensor_id;sensor_type;location;lat;lon;timestamp;pressure;altitude;pressure_sealevel;temperature;humidity
14120;BME280;7138;49.246;9.100;2023-04-07T00:01:22;98740.88;;;9.84;90.09
14120;BME280;7138;49.246;9.100;2023-04-07T00:03:49;98741.75;;;9.87;89.95
14120;BME280;7138;49.246;9.100;2023-04-07T00:06:15;98733.09;;;9.82;90.26
14120;BME280;7138;49.246;9.100;2023-04-07T00:08:41;98726.25;;;9.87;90.14
14120;BME280;7138;49.246;9.100;2023-04-07T00:11:07;98730.53;;;9.90;89.91
14120;BME280;7138;49.246;9.100;2023-04-07T00:13:33;98727.06;;;9.80;91.13
14120;BME280;7138;49.246;9.100;2023-04-07T00:15:59;98723.63;;;9.80;91.06
14120;BME280;7138;49.246;9.100;2023-04-07T00:18:25;98725.34;;;9.79;91.06
14120;BME280;7138;49.246;9.100;2023-04-07T00:20:52;98723.63;;;9.80;91.34
14120;BME280;7138;49.246;9.100;2023-04-07T00:23:18;98702.06;;;9.61;91.84
14120;BME280;7138;49.246;9.100;2023-04-07T00:25:46;98721.03;;;9.72;91.60
14120;BME280;7138;49.246;9.100;2023-04-07T00:28:12;98715.84;;;9.65;92.14
14120;BME280;7138;49.246;9.100;2023-04-07T00:30:38;98715.00;;;9.66;91.40
14120;BME280;7138;49.246;9.100;2023-04-07T00:33:04;98709.81;;;9.64;91.67
14120;BME280;7138;49.246;9.100;2023-04-07T00:35:30;98708.91;;;9.53;92.33
14120;BME280;7138;49.246;9.100;2023-04-07T00:37:57;98702.03;;;9.48;92.76
14120;BME280;7138;49.246;9.100;2023-04-07T00:40:24;98707.22;;;9.54;92.03
14120;BME280;7138;49.246;9.100;2023-04-07T00:42:50;98698.59;;;9.58;91.98
14120;BME280;7138;49.246;9.100;2023-04-07T00:45:16;98696.03;;;9.62;92.34
14120;BME280;7138;49.246;9.100;2023-04-07T00:47:42;98694.31;;;9.63;92.11
14120;BME280;7138;49.246;9.100;2023-04-07T00:50:09;98686.59;;;9.67;92.35
14120;BME280;7138;49.246;9.100;2023-04-07T00:52:35;98681.44;;;9.70;92.44
14120;BME280;7138;49.246;9.100;2023-04-07T00:55:03;98677.97;;;9.70;92.63
14120;BME280;7138;49.246;9.100;2023-04-07T00:57:29;98675.41;;;9.73;92.43
14120;BME280;7138;49.246;9.100;2023-04-07T00:59:55;98677.13;;;9.77;92.29
14120;BME280;7138;49.246;9.100;2023-04-07T01:02:29;98675.44;;;9.77;92.56
14120;BME280;7138;49.246;9.100;2023-04-07T01:05:06;98675.44;;;9.77;92.00
14120;BME280;7138;49.246;9.100;2023-04-07T01:07:51;98670.25;;;9.82;92.51
14120;BME280;7138;49.246;9.100;2023-04-07T01:10:32;98666.84;;;9.84;91.94
14120;BME280;7138;49.246;9.100;2023-04-07T01:13:04;98662.50;;;9.85;91.31
14120;BME280;7138;49.246;9.100;2023-04-07T01:15:33;98659.09;;;9.91;91.26
14120;BME280;7138;49.246;9.100;2023-04-07T01:18:09;98658.22;;;9.95;91.57
14120;BME280;7138;49.246;9.100;2023-04-07T01:20:39;98647.91;;;9.95;91.58
14120;BME280;7138;49.246;9.100;2023-04-07T01:23:15;98647.03;;;9.97;92.12
14120;BME280;7138;49.246;9.100;2023-04-07T01:26:16;98647.91;;;9.98;93.01
14120;BME280;7138;49.246;9.100;2023-04-07T01:31:43;98643.63;;;9.97;92.34
14120;BME280;7138;49.246;9.100;2023-04-07T01:34:12;98647.91;;;9.99;92.34
14120;BME280;7138;49.246;9.100;2023-04-07T01:36:39;98646.19;;;9.98;92.63
14120;BME280;7138;49.246;9.100;2023-04-07T01:39:07;98649.63;;;9.94;92.50
14120;BME280;7138;49.246;9.100;2023-04-07T01:41:35;98637.59;;;9.93;92.76
14120;BME280;7138;49.246;9.100;2023-04-07T01:44:03;98635.84;;;9.92;92.33
14120;BME280;7138;49.246;9.100;2023-04-07T01:46:29;98634.13;;;9.91;92.45
14120;BME280;7138;49.246;9.100;2023-04-07T01:48:57;98641.03;;;9.97;92.23
14120;BME280;7138;49.246;9.100;2023-04-07T01:51:25;98629.84;;;9.96;92.26
14120;BME280;7138;49.246;9.100;2023-04-07T01:53:53;98628.13;;;9.97;92.44
14120;BME280;7138;49.246;9.100;2023-04-07T01:56:18;98630.69;;;9.92;92.73
14120;BME280;7138;49.246;9.100;2023-04-07T01:58:44;98628.94;;;9.91;92.78
14120;BME280;7138;49.246;9.100;2023-04-07T02:01:12;98625.53;;;9.87;92.60
14120;BME280;7138;49.246;9.100;2023-04-07T02:03:44;98623.78;;;9.79;93.29
14120;BME280;7138;49.246;9.100;2023-04-07T02:06:18;98621.19;;;9.77;93.21
14120;BME280;7138;49.246;9.100;2023-04-07T02:08:51;98620.34;;;9.77;92.77
14120;BME280;7138;49.246;9.100;2023-04-07T02:11:21;98625.53;;;9.78;92.85
14120;BME280;7138;49.246;9.100;2023-04-07T02:13:51;98616.91;;;9.78;92.93
14120;BME280;7138;49.246;9.100;2023-04-07T02:16:19;98613.44;;;9.82;92.68
14120;BME280;7138;49.246;9.100;2023-04-07T02:18:46;98617.78;;;9.78;92.90
14120;BME280;7138;49.246;9.100;2023-04-07T02:21:14;98615.19;;;9.80;92.99
14120;BME280;7138;49.246;9.100;2023-04-07T02:23:41;98615.19;;;9.78;92.88
14120;BME280;7138;49.246;9.100;2023-04-07T02:26:08;98617.75;;;9.83;93.38
14120;BME280;7138;49.246;9.100;2023-04-07T02:28:34;98611.75;;;9.84;93.15
14120;BME280;7138;49.246;9.100;2023-04-07T02:31:00;98610.88;;;9.88;93.11
14120;BME280;7138;49.246;9.100;2023-04-07T02:33:26;98608.31;;;9.89;93.02
14120;BME280;7138;49.246;9.100;2023-04-07T02:35:52;98605.69;;;9.91;92.98
14120;BME280;7138;49.246;9.100;2023-04-07T02:38:19;98610.88;;;9.96;92.73
14120;BME280;7138;49.246;9.100;2023-04-07T02:40:45;98601.41;;;9.95;92.69
14120;BME280;7138;49.246;9.100;2023-04-07T02:43:11;98599.69;;;9.89;92.68
14120;BME280;7138;49.246;9.100;2023-04-07T02:45:37;98599.69;;;9.83;93.01
14120;BME280;7138;49.246;9.100;2023-04-07T02:48:05;98595.38;;;9.82;93.17
14120;BME280;7138;49.246;9.100;2023-04-07T02:50:30;98591.06;;;9.82;92.70
14120;BME280;7138;49.246;9.100;2023-04-07T02:52:56;98589.34;;;9.80;93.36
14120;BME280;7138;49.246;9.100;2023-04-07T02:55:23;98592.81;;;9.80;93.02
14120;BME280;7138;49.246;9.100;2023-04-07T02:57:49;98587.63;;;9.82;93.00
14120;BME280;7138;49.246;9.100;2023-04-07T03:00:15;98582.47;;;9.82;93.31
14120;BME280;7138;49.246;9.100;2023-04-07T03:02:41;98585.91;;;9.82;92.85
14120;BME280;7138;49.246;9.100;2023-04-07T03:05:08;98579.91;;;9.80;92.78
14120;BME280;7138;49.246;9.100;2023-04-07T03:07:33;98578.16;;;9.85;92.67
14120;BME280;7138;49.246;9.100;2023-04-07T03:09:59;98575.59;;;9.90;93.04
14120;BME280;7138;49.246;9.100;2023-04-07T03:12:26;98577.31;;;9.93;93.12
14120;BME280;7138;49.246;9.100;2023-04-07T03:14:52;98572.13;;;9.88;93.82
14120;BME280;7138;49.246;9.100;2023-04-07T03:17:18;98573.88;;;9.81;93.80
14120;BME280;7138;49.246;9.100;2023-04-07T03:19:44;98573.00;;;9.75;94.27
14120;BME280;7138;49.246;9.100;2023-04-07T03:22:11;98571.28;;;9.75;94.11
14120;BME280;7138;49.246;9.100;2023-04-07T03:24:37;98566.97;;;9.80;93.89
14120;BME280;7138;49.246;9.100;2023-04-07T03:27:05;98562.69;;;9.84;94.03
14120;BME280;7138;49.246;9.100;2023-04-07T03:29:32;98556.63;;;9.85;94.22
14120;BME280;7138;49.246;9.100;2023-04-07T03:31:58;98560.97;;;9.81;94.71
14120;BME280;7138;49.246;9.100;2023-04-07T03:34:24;98561.81;;;9.76;94.88
14120;BME280;7138;49.246;9.100;2023-04-07T03:36:50;98560.97;;;9.72;94.95
14120;BME280;7138;49.246;9.100;2023-04-07T03:39:16;98560.09;;;9.73;94.99
14120;BME280;7138;49.246;9.100;2023-04-07T03:41:41;98559.25;;;9.74;94.71
14120;BME280;7138;49.246;9.100;2023-04-07T03:44:07;98552.34;;;9.76;94.85
14120;BME280;7138;49.246;9.100;2023-04-07T03:46:34;98556.63;;;9.76;94.97
14120;BME280;7138;49.246;9.100;2023-04-07T03:49:00;98553.22;;;9.77;94.72
14120;BME280;7138;49.246;9.100;2023-04-07T03:51:26;98553.22;;;9.75;94.54
14120;BME280;7138;49.246;9.100;2023-04-07T03:53:52;98551.50;;;9.74;94.93
14120;BME280;7138;49.246;9.100;2023-04-07T03:56:18;98553.22;;;9.69;95.55
14120;BME280;7138;49.246;9.100;2023-04-07T03:58:45;98559.22;;;9.65;95.59
14120;BME280;7138;49.246;9.100;2023-04-07T04:01:11;98560.09;;;9.64;95.48
14120;BME280;7138;49.246;9.100;2023-04-07T04:03:39;98558.38;;;9.60;95.74
14120;BME280;7138;49.246;9.100;2023-04-07T04:06:05;98557.50;;;9.55;96.05
14120;BME280;7138;49.246;9.100;2023-04-07T04:08:31;98555.81;;;9.57;96.31
14120;BME280;7138;49.246;9.100;2023-04-07T04:10:57;98554.06;;;9.50;96.46
14120;BME280;7138;49.246;9.100;2023-04-07T04:13:23;98554.03;;;9.49;96.76
14120;BME280;7138;49.246;9.100;2023-04-07T04:15:49;98558.34;;;9.50;96.14
14120;BME280;7138;49.246;9.100;2023-04-07T04:18:15;98554.91;;;9.52;96.11
14120;BME280;7138;49.246;9.100;2023-04-07T04:20:43;98549.78;;;9.57;96.19
14120;BME280;7138;49.246;9.100;2023-04-07T04:23:09;98542.00;;;9.58;95.96
14120;BME280;7138;49.246;9.100;2023-04-07T04:25:35;98553.22;;;9.57;96.15
14120;BME280;7138;49.246;9.100;2023-04-07T04:28:04;98556.63;;;9.55;96.47
14120;BME280;7138;49.246;9.100;2023-04-07T04:30:30;98554.94;;;9.60;95.79
14120;BME280;7138;49.246;9.100;2023-04-07T04:32:55;98556.63;;;9.61;96.13
14120;BME280;7138;49.246;9.100;2023-04-07T04:35:21;98558.38;;;9.63;95.56
14120;BME280;7138;49.246;9.100;2023-04-07T04:37:49;98558.38;;;9.68;95.91
14120;BME280;7138;49.246;9.100;2023-04-07T04:40:15;98558.38;;;9.66;95.84
14120;BME280;7138;49.246;9.100;2023-04-07T04:42:41;98552.34;;;9.69;95.54
14120;BME280;7138;49.246;9.100;2023-04-07T04:45:08;98564.38;;;9.70;95.47
14120;BME280;7138;49.246;9.100;2023-04-07T04:47:34;98563.56;;;9.69;95.36
14120;BME280;7138;49.246;9.100;2023-04-07T04:50:00;98548.06;;;9.66;95.41
14120;BME280;7138;49.246;9.100;2023-04-07T04:52:26;98552.34;;;9.67;95.32
14120;BME280;7138;49.246;9.100;2023-04-07T04:54:54;98558.38;;;9.66;95.58
14120;BME280;7138;49.246;9.100;2023-04-07T04:57:20;98552.34;;;9.64;95.98
14120;BME280;7138;49.246;9.100;2023-04-07T04:59:46;98555.81;;;9.60;95.74
14120;BME280;7138;49.246;9.100;2023-04-07T05:02:12;98550.63;;;9.60;95.68
14120;BME280;7138;49.246;9.100;2023-04-07T05:04:38;98552.34;;;9.61;95.74
14120;BME280;7138;49.246;9.100;2023-04-07T05:07:03;98558.38;;;9.62;95.57
14120;BME280;7138;49.246;9.100;2023-04-07T05:09:30;98554.91;;;9.64;95.33
14120;BME280;7138;49.246;9.100;2023-04-07T05:11:57;98564.41;;;9.65;95.36
14120;BME280;7138;49.246;9.100;2023-04-07T05:14:23;98560.09;;;9.64;95.66
14120;BME280;7138;49.246;9.100;2023-04-07T05:16:49;98554.94;;;9.63;95.68
14120;BME280;7138;49.246;9.100;2023-04-07T05:19:15;98554.06;;;9.62;96.13
14120;BME280;7138;49.246;9.100;2023-04-07T05:21:41;98553.22;;;9.63;95.93
14120;BME280;7138;49.246;9.100;2023-04-07T05:24:07;98549.78;;;9.63;96.00
14120;BME280;7138;49.246;9.100;2023-04-07T05:26:32;98551.47;;;9.61;95.90
14120;BME280;7138;49.246;9.100;2023-04-07T05:28:59;98555.81;;;9.63;95.77
14120;BME280;7138;49.246;9.100;2023-04-07T05:31:26;98551.47;;;9.64;95.52
14120;BME280;7138;49.246;9.100;2023-04-07T05:33:52;98564.38;;;9.59;95.77
14120;BME280;7138;49.246;9.100;2023-04-07T05:36:18;98559.22;;;9.59;95.33
14120;BME280;7138;49.246;9.100;2023-04-07T05:38:44;98559.22;;;9.59;95.55
14120;BME280;7138;49.246;9.100;2023-04-07T05:41:10;98561.78;;;9.61;95.53
14120;BME280;7138;49.246;9.100;2023-04-07T05:43:36;98555.81;;;9.63;95.40
14120;BME280;7138;49.246;9.100;2023-04-07T05:46:04;98558.38;;;9.65;95.00
14120;BME280;7138;49.246;9.100;2023-04-07T05:48:30;98560.09;;;9.64;95.20
14120;BME280;7138;49.246;9.100;2023-04-07T05:50:55;98560.97;;;9.60;95.54
14120;BME280;7138;49.246;9.100;2023-04-07T05:53:21;98567.81;;;9.61;95.20
14120;BME280;7138;49.246;9.100;2023-04-07T05:55:47;98564.38;;;9.61;95.32
14120;BME280;7138;49.246;9.100;2023-04-07T05:58:13;98555.81;;;9.60;95.38
14120;BME280;7138;49.246;9.100;2023-04-07T06:00:39;98554.06;;;9.62;95.18
14120;BME280;7138;49.246;9.100;2023-04-07T06:03:07;98558.38;;;9.57;96.18
14120;BME280;7138;49.246;9.100;2023-04-07T06:05:33;98554.94;;;9.57;95.63
14120;BME280;7138;49.246;9.100;2023-04-07T06:07:59;98555.81;;;9.57;95.63
14120;BME280;7138;49.246;9.100;2023-04-07T06:10:25;98551.47;;;9.52;96.25
14120;BME280;7138;49.246;9.100;2023-04-07T06:12:51;98556.66;;;9.53;96.31
14120;BME280;7138;49.246;9.100;2023-04-07T06:15:17;98555.78;;;9.59;96.00
14120;BME280;7138;49.246;9.100;2023-04-07T06:17:43;98551.50;;;9.65;96.09
14120;BME280;7138;49.246;9.100;2023-04-07T06:20:12;98554.06;;;9.91;97.71
14120;BME280;7138;49.246;9.100;2023-04-07T06:22:38;98553.19;;;10.12;97.08
14120;BME280;7138;49.246;9.100;2023-04-07T06:25:05;98555.75;;;10.43;97.37
14120;BME280;7138;49.246;9.100;2023-04-07T06:27:31;98547.03;;;10.67;94.67
14120;BME280;7138;49.246;9.100;2023-04-07T06:29:57;98552.16;;;10.82;93.20
14120;BME280;7138;49.246;9.100;2023-04-07T06:32:23;98548.66;;;10.92;92.61
14120;BME280;7138;49.246;9.100;2023-04-07T06:34:50;98552.97;;;10.95;91.74
14120;BME280;7138;49.246;9.100;2023-04-07T06:37:17;98551.28;;;10.94;91.86
14120;BME280;7138;49.246;9.100;2023-04-07T06:39:43;98543.47;;;10.98;91.86
14120;BME280;7138;49.246;9.100;2023-04-07T06:42:09;98549.47;;;11.05;92.06
14120;BME280;7138;49.246;9.100;2023-04-07T06:44:35;98544.31;;;11.05;91.51
14120;BME280;7138;49.246;9.100;2023-04-07T06:47:01;98547.75;;;11.09;91.87
14120;BME280;7138;49.246;9.100;2023-04-07T06:49:27;98549.44;;;11.11;91.28
14120;BME280;7138;49.246;9.100;2023-04-07T06:51:53;98553.72;;;11.17;91.58
14120;BME280;7138;49.246;9.100;2023-04-07T06:54:20;98550.28;;;11.18;91.88
14120;BME280;7138;49.246;9.100;2023-04-07T06:56:46;98543.38;;;11.17;91.72
14120;BME280;7138;49.246;9.100;2023-04-07T06:59:11;98545.09;;;11.16;90.86
14120;BME280;7138;49.246;9.100;2023-04-07T07:01:37;98546.81;;;11.17;91.11
14120;BME280;7138;49.246;9.100;2023-04-07T07:04:03;98547.69;;;11.18;90.75
14120;BME280;7138;49.246;9.100;2023-04-07T07:06:30;98545.09;;;11.16;90.62
14120;BME280;7138;49.246;9.100;2023-04-07T07:08:57;98550.31;;;11.09;91.37
14120;BME280;7138;49.246;9.100;2023-04-07T07:11:24;98547.75;;;11.04;91.25
14120;BME280;7138;49.246;9.100;2023-04-07T07:13:50;98546.91;;;11.01;91.65
14120;BME280;7138;49.246;9.100;2023-04-07T07:16:16;98548.63;;;11.02;91.57
14120;BME280;7138;49.246;9.100;2023-04-07T07:18:42;98550.38;;;11.00;92.04
14120;BME280;7138;49.246;9.100;2023-04-07T07:21:08;98548.63;;;11.02;92.63
14120;BME280;7138;49.246;9.100;2023-04-07T07:23:34;98549.44;;;11.10;94.14
14120;BME280;7138;49.246;9.100;2023-04-07T07:26:00;98550.28;;;11.15;92.84
14120;BME280;7138;49.246;9.100;2023-04-07T07:28:27;98551.09;;;11.24;93.61
14120;BME280;7138;49.246;9.100;2023-04-07T07:30:53;98550.13;;;11.42;94.65
14120;BME280;7138;49.246;9.100;2023-04-07T07:33:19;98551.78;;;11.49;93.41
14120;BME280;7138;49.246;9.100;2023-04-07T07:35:47;98549.13;;;11.63;93.58
14120;BME280;7138;49.246;9.100;2023-04-07T07:38:13;98553.28;;;11.83;94.22
14120;BME280;7138;49.246;9.100;2023-04-07T07:40:38;98558.31;;;12.03;94.88
14120;BME280;7138;49.246;9.100;2023-04-07T07:43:04;98560.78;;;12.18;91.23
14120;BME280;7138;49.246;9.100;2023-04-07T07:45:32;98563.22;;;12.32;89.57
14120;BME280;7138;49.246;9.100;2023-04-07T07:47:58;98555.22;;;12.53;91.06
14120;BME280;7138;49.246;9.100;2023-04-07T07:50:24;98558.47;;;12.72;91.16
14120;BME280;7138;49.246;9.100;2023-04-07T07:52:50;98559.13;;;12.92;90.24
14120;BME280;7138;49.246;9.100;2023-04-07T07:55:15;98558.91;;;13.08;88.42
14120;BME280;7138;49.246;9.100;2023-04-07T07:57:41;98564.00;;;13.18;87.95
14120;BME280;7138;49.246;9.100;2023-04-07T08:00:09;98556.94;;;13.26;87.82
14120;BME280;7138;49.246;9.100;2023-04-07T08:02:36;98562.97;;;13.29;86.75
14120;BME280;7138;49.246;9.100;2023-04-07T08:05:04;98557.63;;;13.38;86.10
14120;BME280;7138;49.246;9.100;2023-04-07T08:07:30;98557.56;;;13.44;85.99
14120;BME280;7138;49.246;9.100;2023-04-07T08:09:56;98560.19;;;13.43;86.47
14120;BME280;7138;49.246;9.100;2023-04-07T08:12:21;98556.69;;;13.44;85.48
14120;BME280;7138;49.246;9.100;2023-04-07T08:14:47;98563.34;;;13.63;87.34
14120;BME280;7138;49.246;9.100;2023-04-07T08:17:14;98566.53;;;13.80;87.97
14120;BME280;7138;49.246;9.100;2023-04-07T08:19:41;98571.53;;;13.94;85.30
14120;BME280;7138;49.246;9.100;2023-04-07T08:22:07;98576.47;;;14.09;84.34
14120;BME280;7138;49.246;9.100;2023-04-07T08:24:33;98580.44;;;14.30;84.47
14120;BME280;7138;49.246;9.100;2023-04-07T08:26:59;98587.19;;;14.43;84.19
14120;BME280;7138;49.246;9.100;2023-04-07T08:29:26;98589.66;;;14.49;80.96
14120;BME280;7138;49.246;9.100;2023-04-07T08:31:51;98587.03;;;14.50;81.35
14120;BME280;7138;49.246;9.100;2023-04-07T08:34:17;98581.78;;;14.53;80.38
14120;BME280;7138;49.246;9.100;2023-04-07T08:36:46;98581.72;;;14.56;80.88
14120;BME280;7138;49.246;9.100;2023-04-07T08:39:12;98578.22;;;14.59;80.04
14120;BME280;7138;49.246;9.100;2023-04-07T08:41:41;98592.00;;;14.62;79.74
14120;BME280;7138;49.246;9.100;2023-04-07T08:44:07;98594.88;;;14.47;79.53
14120;BME280;7138;49.246;9.100;2023-04-07T08:46:35;98589.78;;;14.43;80.95
14120;BME280;7138;49.246;9.100;2023-04-07T08:49:07;98594.88;;;14.47;80.95
14120;BME280;7138;49.246;9.100;2023-04-07T08:51:37;98591.41;;;14.50;80.74
14120;BME280;7138;49.246;9.100;2023-04-07T08:54:09;98598.25;;;14.54;79.60
14120;BME280;7138;49.246;9.100;2023-04-07T08:56:38;98596.56;;;14.51;79.76
14120;BME280;7138;49.246;9.100;2023-04-07T08:59:08;98598.41;;;14.45;78.84
14120;BME280;7138;49.246;9.100;2023-04-07T09:01:35;98597.59;;;14.41;79.40
14120;BME280;7138;49.246;9.100;2023-04-07T09:04:02;98601.00;;;14.45;79.37
14120;BME280;7138;49.246;9.100;2023-04-07T09:06:29;98596.84;;;14.36;80.17
14120;BME280;7138;49.246;9.100;2023-04-07T09:08:56;98607.47;;;14.22;81.14
14120;BME280;7138;49.246;9.100;2023-04-07T09:11:27;98602.78;;;14.43;82.13
14120;BME280;7138;49.246;9.100;2023-04-07T09:13:54;98600.50;;;14.73;82.30
14120;BME280;7138;49.246;9.100;2023-04-07T09:16:21;98601.69;;;15.00;80.25
14120;BME280;7138;49.246;9.100;2023-04-07T09:18:48;98600.56;;;15.13;79.15
14120;BME280;7138;49.246;9.100;2023-04-07T09:21:14;98603.56;;;15.35;78.13
14120;BME280;7138;49.246;9.100;2023-04-07T09:23:41;98597.31;;;15.44;78.10
14120;BME280;7138;49.246;9.100;2023-04-07T09:26:25;98600.56;;;15.55;76.79
14120;BME280;7138;49.246;9.100;2023-04-07T09:28:56;98604.72;;;15.63;78.59
14120;BME280;7138;49.246;9.100;2023-04-07T09:31:23;98607.25;;;15.66;76.50
14120;BME280;7138;49.246;9.100;2023-04-07T09:33:51;98608.84;;;15.72;79.05
14120;BME280;7138;49.246;9.100;2023-04-07T09:36:18;98597.53;;;15.74;76.06
14120;BME280;7138;49.246;9.100;2023-04-07T09:38:44;98604.56;;;15.71;75.56
14120;BME280;7138;49.246;9.100;2023-04-07T09:41:13;98606.91;;;15.81;74.74
14120;BME280;7138;49.246;9.100;2023-04-07T09:43:44;98598.94;;;15.88;76.18
14120;BME280;7138;49.246;9.100;2023-04-07T09:46:13;98603.13;;;15.95;73.24
14120;BME280;7138;49.246;9.100;2023-04-07T09:48:40;98597.53;;;16.10;74.67
14120;BME280;7138;49.246;9.100;2023-04-07T09:51:09;98598.13;;;16.21;74.81
14120;BME280;7138;49.246;9.100;2023-04-07T09:53:44;98604.53;;;16.41;75.76
14120;BME280;7138;49.246;9.100;2023-04-07T09:56:12;98598.13;;;16.56;75.45
14120;BME280;7138;49.246;9.100;2023-04-07T09:58:42;98600.69;;;16.58;73.87
14120;BME280;7138;49.246;9.100;2023-04-07T10:01:09;98590.31;;;16.56;73.40
14120;BME280;7138;49.246;9.100;2023-04-07T10:03:37;98598.25;;;16.50;73.70
14120;BME280;7138;49.246;9.100;2023-04-07T10:06:04;98604.19;;;16.57;73.02
14120;BME280;7138;49.246;9.100;2023-04-07T10:08:33;98607.06;;;16.46;71.62
14120;BME280;7138;49.246;9.100;2023-04-07T10:11:00;98606.50;;;16.33;71.33
14120;BME280;7138;49.246;9.100;2023-04-07T10:13:28;98607.69;;;16.22;72.01
14120;BME280;7138;49.246;9.100;2023-04-07T10:15:57;98603.63;;;16.10;71.33
14120;BME280;7138;49.246;9.100;2023-04-07T10:18:28;98609.06;;;16.01;71.91
14120;BME280;7138;49.246;9.100;2023-04-07T10:20:56;98606.47;;;16.00;72.78
14120;BME280;7138;49.246;9.100;2023-04-07T10:23:33;98600.44;;;15.98;72.91
14120;BME280;7138;49.246;9.100;2023-04-07T10:26:05;98614.41;;;15.95;71.58
14120;BME280;7138;49.246;9.100;2023-04-07T10:28:34;98607.56;;;15.91;71.03
14120;BME280;7138;49.246;9.100;2023-04-07T10:31:04;98603.13;;;15.95;70.76
14120;BME280;7138;49.246;9.100;2023-04-07T10:33:45;98600.53;;;15.93;71.14
14120;BME280;7138;49.246;9.100;2023-04-07T10:36:12;98604.00;;;15.94;71.83
14120;BME280;7138;49.246;9.100;2023-04-07T10:38:37;98595.31;;;15.93;71.96
14120;BME280;7138;49.246;9.100;2023-04-07T10:41:31;98596.03;;;16.00;71.45
14120;BME280;7138;49.246;9.100;2023-04-07T10:43:58;98597.69;;;16.04;71.11
14120;BME280;7138;49.246;9.100;2023-04-07T10:49:26;98593.91;;;16.17;71.31
14120;BME280;7138;49.246;9.100;2023-04-07T10:52:22;98603.78;;;16.38;71.05
14120;BME280;7138;49.246;9.100;2023-04-07T10:55:29;98605.41;;;16.42;69.51
14120;BME280;7138;49.246;9.100;2023-04-07T11:01:16;98601.63;;;16.54;70.01
14120;BME280;7138;49.246;9.100;2023-04-07T11:03:54;98597.41;;;16.50;70.63
14120;BME280;7138;49.246;9.100;2023-04-07T11:06:20;98598.63;;;16.69;72.42
14120;BME280;7138;49.246;9.100;2023-04-07T11:08:47;98598.56;;;16.72;70.20
14120;BME280;7138;49.246;9.100;2023-04-07T11:11:34;98593.84;;;16.84;72.17
14120;BME280;7138;49.246;9.100;2023-04-07T11:14:01;98594.63;;;16.89;70.18
14120;BME280;7138;49.246;9.100;2023-04-07T11:16:42;98593.34;;;17.03;68.76
14120;BME280;7138;49.246;9.100;2023-04-07T11:19:08;98590.97;;;16.95;68.01
14120;BME280;7138;49.246;9.100;2023-04-07T11:21:34;98590.63;;;17.07;69.63
14120;BME280;7138;49.246;9.100;2023-04-07T11:24:01;98586.03;;;17.15;70.35
14120;BME280;7138;49.246;9.100;2023-04-07T11:26:29;98596.22;;;17.24;69.53
14120;BME280;7138;49.246;9.100;2023-04-07T11:28:55;98590.97;;;17.24;69.55
14120;BME280;7138;49.246;9.100;2023-04-07T11:31:24;98607.75;;;17.17;68.60
14120;BME280;7138;49.246;9.100;2023-04-07T11:33:54;98606.31;;;17.06;68.58
14120;BME280;7138;49.246;9.100;2023-04-07T11:36:29;98608.81;;;16.79;70.70
14120;BME280;7138;49.246;9.100;2023-04-07T11:38:56;98606.16;;;16.47;71.60
14120;BME280;7138;49.246;9.100;2023-04-07T11:41:23;98603.75;;;16.39;73.37
14120;BME280;7138;49.246;9.100;2023-04-07T11:44:08;98604.09;;;16.26;73.87
14120;BME280;7138;49.246;9.100;2023-04-07T11:46:34;98607.84;;;16.14;74.25
14120;BME280;7138;49.246;9.100;2023-04-07T11:49:12;98599.84;;;16.22;77.51
14120;BME280;7138;49.246;9.100;2023-04-07T11:51:39;98604.94;;;16.26;76.20
14120;BME280;7138;49.246;9.100;2023-04-07T11:54:05;98602.31;;;16.26;78.10
14120;BME280;7138;49.246;9.100;2023-04-07T11:56:42;98597.78;;;16.34;76.87
14120;BME280;7138;49.246;9.100;2023-04-07T11:59:18;98601.13;;;16.39;77.94
14120;BME280;7138;49.246;9.100;2023-04-07T12:01:45;98591.47;;;16.43;73.75
14120;BME280;7138;49.246;9.100;2023-04-07T12:04:12;98582.53;;;16.53;71.97
14120;BME280;7138;49.246;9.100;2023-04-07T12:06:43;98601.91;;;16.77;75.31
14120;BME280;7138;49.246;9.100;2023-04-07T12:09:26;98592.78;;;16.93;73.13
14120;BME280;7138;49.246;9.100;2023-04-07T12:11:52;98573.91;;;16.82;73.90
14120;BME280;7138;49.246;9.100;2023-04-07T12:14:19;98592.00;;;17.20;70.86
14120;BME280;7138;49.246;9.100;2023-04-07T12:16:45;98595.91;;;17.35;71.57
14120;BME280;7138;49.246;9.100;2023-04-07T12:19:11;98593.72;;;17.49;74.10
14120;BME280;7138;49.246;9.100;2023-04-07T12:21:37;98591.03;;;17.52;69.21
14120;BME280;7138;49.246;9.100;2023-04-07T12:24:03;98600.28;;;17.64;69.71
14120;BME280;7138;49.246;9.100;2023-04-07T12:26:29;98598.94;;;17.78;69.43
14120;BME280;7138;49.246;9.100;2023-04-07T12:28:55;98597.88;;;17.85;70.56
14120;BME280;7138;49.246;9.100;2023-04-07T12:31:24;98592.03;;;18.03;71.43
14120;BME280;7138;49.246;9.100;2023-04-07T12:33:50;98586.22;;;18.22;70.57
14120;BME280;7138;49.246;9.100;2023-04-07T12:36:16;98566.69;;;18.32;69.11
14120;BME280;7138;49.246;9.100;2023-04-07T12:38:42;98588.81;;;18.48;67.65
14120;BME280;7138;49.246;9.100;2023-04-07T12:41:08;98589.91;;;18.67;69.10
14120;BME280;7138;49.246;9.100;2023-04-07T12:43:33;98587.69;;;18.81;69.78
14120;BME280;7138;49.246;9.100;2023-04-07T12:46:00;98591.56;;;18.70;65.97
14120;BME280;7138;49.246;9.100;2023-04-07T12:48:27;98588.00;;;18.72;67.18
14120;BME280;7138;49.246;9.100;2023-04-07T12:50:53;98591.47;;;18.73;66.76
14120;BME280;7138;49.246;9.100;2023-04-07T12:53:19;98593.25;;;18.72;66.96
14120;BME280;7138;49.246;9.100;2023-04-07T12:55:46;98584.41;;;18.75;66.65
14120;BME280;7138;49.246;9.100;2023-04-07T12:58:12;98591.97;;;18.84;66.75
14120;BME280;7138;49.246;9.100;2023-04-07T13:00:39;98590.09;;;18.87;65.94
14120;BME280;7138;49.246;9.100;2023-04-07T13:03:06;98583.16;;;18.85;63.88
14120;BME280;7138;49.246;9.100;2023-04-07T13:05:33;98592.50;;;18.93;64.06
14120;BME280;7138;49.246;9.100;2023-04-07T13:08:00;98586.06;;;19.02;64.00
14120;BME280;7138;49.246;9.100;2023-04-07T13:10:25;98590.31;;;19.04;63.35
14120;BME280;7138;49.246;9.100;2023-04-07T13:12:52;98591.19;;;19.05;64.10
14120;BME280;7138;49.246;9.100;2023-04-07T13:15:17;98588.59;;;19.03;65.21
14120;BME280;7138;49.246;9.100;2023-04-07T13:17:43;98590.97;;;19.11;65.73
14120;BME280;7138;49.246;9.100;2023-04-07T13:20:10;98588.41;;;18.85;62.64
14120;BME280;7138;49.246;9.100;2023-04-07T13:22:37;98592.97;;;18.80;65.04
14120;BME280;7138;49.246;9.100;2023-04-07T13:25:04;98591.34;;;18.76;63.96
14120;BME280;7138;49.246;9.100;2023-04-07T13:27:30;98590.22;;;18.58;65.17